Time;durP1;ratioP1;P1;durP2;ratioP2;P2;SDS_P1;SDS_P2;PMS_P1;PMS_P2;Temp;Humidity;BMP_temperature;BMP_pressure;BME280_temperature;BME280_humidity;BME280_pressure;Samples;Min_cycle;Max_cycle;Signal;HPM_P1;HPM_P2
2022/09/17 00:01:21;;;;;;;3.12;2.70;;;;;;;10.29;81.16;97894.52;1741920;81;21018;-42
2022/09/17 00:03:52;;;;;;;6.47;3.10;;;;;;;10.27;81.21;97889.37;1741487;82;21007;-42
2022/09/17 00:06:19;;;;;;;4.53;2.83;;;;;;;10.22;81.42;97892.83;1741707;82;21015;-42
2022/09/17 00:08:44;;;;;;;6.97;3.02;;;;;;;10.18;81.41;97888.77;1741736;82;20980;-42
2022/09/17 00:11:22;;;;;;;4.00;3.10;;;;;;;10.16;81.78;97883.63;1741691;82;21505;-42
2022/09/17 00:13:50;;;;;;;3.98;2.80;;;;;;;10.19;81.52;97887.83;1741535;82;20992;-42
2022/09/17 00:16:41;;;;;;;4.87;2.90;;;;;;;10.17;82.08;97885.31;1741688;82;21438;-42
2022/09/17 00:19:21;;;;;;;5.53;3.27;;;;;;;10.20;81.71;97884.23;1741700;82;20952;-42
2022/09/17 00:21:48;;;;;;;6.30;3.20;;;;;;;10.18;81.27;97890.91;1741714;82;20960;-42
2022/09/17 00:24:15;;;;;;;4.47;3.30;;;;;;;10.17;81.45;97883.17;1741940;82;20992;-42
2022/09/17 00:26:41;;;;;;;7.45;3.42;;;;;;;10.15;81.92;97888.53;1741876;82;21023;-42
2022/09/17 00:29:08;;;;;;;4.37;3.02;;;;;;;10.15;82.21;97892.93;1741635;82;20984;-42
2022/09/17 00:31:34;;;;;;;4.73;3.33;;;;;;;10.12;82.59;97884.82;1741975;82;20971;-42
2022/09/17 00:34:03;;;;;;;4.67;3.10;;;;;;;10.14;82.05;97888.16;1741728;82;20980;-41
2022/09/17 00:36:29;;;;;;;5.72;3.20;;;;;;;10.11;82.20;97892.81;1741787;82;21020;-41
2022/09/17 00:38:58;;;;;;;7.33;3.22;;;;;;;10.13;82.17;97884.34;1741633;82;20956;-41
2022/09/17 00:41:28;;;;;;;5.10;2.92;;;;;;;10.12;82.50;97886.62;1741768;81;20960;-41
2022/09/17 00:44:01;;;;;;;6.03;3.25;;;;;;;10.11;82.79;97890.19;1741677;82;20980;-41
2022/09/17 00:46:38;;;;;;;4.62;2.87;;;;;;;10.11;82.24;97890.19;1741785;82;20964;-41
2022/09/17 00:49:11;;;;;;;2.90;2.60;;;;;;;10.07;83.00;97897.45;1741921;82;21457;-42
2022/09/17 00:51:58;;;;;;;5.00;2.83;;;;;;;10.06;82.93;97891.00;1741772;82;20980;-41
2022/09/17 00:54:25;;;;;;;3.37;2.65;;;;;;;10.07;83.04;97901.89;1741894;82;21450;-43
2022/09/17 00:56:51;;;;;;;5.75;2.70;;;;;;;10.03;83.21;97895.20;1741671;82;20965;-41
2022/09/17 00:59:19;;;;;;;3.67;2.85;;;;;;;9.99;83.59;97894.11;1741678;82;20957;-42
2022/09/17 01:01:45;;;;;;;2.62;2.37;;;;;;;9.98;83.64;97894.22;1741664;82;21040;-42
2022/09/17 01:04:24;;;;;;;9.85;2.75;;;;;;;9.98;83.34;97902.09;1741638;82;20980;-42
2022/09/17 01:07:21;;;;;;;3.80;2.80;;;;;;;9.92;83.67;97898.63;1741685;81;20949;-41
2022/09/17 01:10:10;;;;;;;;;;;;;;;9.88;84.15;97899.33;1743836;82;21027;-41
2022/09/17 01:12:50;;;;;;;4.33;2.75;;;;;;;9.81;84.82;97888.92;1741376;82;20115;-41
2022/09/17 01:15:30;;;;;;;4.20;3.00;;;;;;;9.78;84.80;97894.39;1738082;82;20984;-42
2022/09/17 01:18:21;;;;;;;2.30;2.10;;;;;;;9.82;84.02;97898.45;1741701;82;21496;-41
2022/09/17 01:21:07;;;;;;;4.75;2.50;;;;;;;9.81;84.29;97907.30;1741607;82;20980;-41
2022/09/17 01:23:54;;;;;;;3.43;2.57;;;;;;;9.77;84.08;97900.61;1741989;82;20948;-42
2022/09/17 01:27:04;;;;;;;6.92;2.20;;;;;;;9.76;84.30;97899.75;1741797;82;21469;-41
2022/09/17 01:29:54;;;;;;;3.02;2.50;;;;;;;9.69;85.08;97909.03;1731888;82;21500;-41
2022/09/17 01:32:31;;;;;;;3.65;2.35;;;;;;;9.71;84.47;97901.05;1741478;82;21007;-41
2022/09/17 01:35:14;;;;;;;3.58;2.17;;;;;;;9.69;84.15;97899.84;1741597;82;20976;-41
2022/09/17 01:38:10;;;;;;;3.37;2.37;;;;;;;9.66;84.27;97903.17;1741285;82;20976;-41
2022/09/17 01:40:50;;;;;;;3.72;2.08;;;;;;;9.67;84.58;97892.56;1741808;82;20988;-41
2022/09/17 01:43:23;;;;;;;5.12;2.08;;;;;;;9.66;84.94;97900.09;1741486;82;20956;-41
2022/09/17 01:46:17;;;;;;;7.47;2.42;;;;;;;9.65;85.09;97901.52;1741655;82;20980;-41
2022/09/17 01:48:48;;;;;;;3.35;2.00;;;;;;;9.66;84.52;97897.47;1741627;82;20952;-41
2022/09/17 01:51:18;;;;;;;3.22;2.27;;;;;;;9.66;84.62;97900.55;1741695;82;20968;-42
2022/09/17 01:54:01;;;;;;;2.30;2.10;;;;;;;9.67;84.68;97900.92;1741670;82;20972;-41
2022/09/17 01:56:53;;;;;;;5.25;2.65;;;;;;;9.64;84.65;97902.00;1741767;82;21035;-41
2022/09/17 01:59:30;;;;;;;7.03;2.25;;;;;;;9.66;84.38;97897.92;1743434;81;20955;-41
2022/09/17 02:02:32;;;;;;;3.40;2.52;;;;;;;9.61;84.56;97900.91;1753876;82;20987;-41
2022/09/17 02:05:05;;;;;;;3.30;2.15;;;;;;;9.57;84.91;97895.52;1752906;82;20955;-41
2022/09/17 02:07:39;;;;;;;3.85;1.82;;;;;;;9.57;85.26;97893.73;1753625;82;20975;-41
2022/09/17 02:10:11;;;;;;;6.08;2.33;;;;;;;9.47;86.39;97886.16;1753491;82;21521;-41
2022/09/17 02:12:48;;;;;;;3.77;2.20;;;;;;;9.44;86.62;97887.72;1749965;82;20995;-43
2022/09/17 02:15:20;;;;;;;4.28;2.30;;;;;;;9.49;85.72;97884.25;1749318;82;20955;-42
2022/09/17 02:17:54;;;;;;;2.75;2.27;;;;;;;9.53;85.47;97879.62;1748476;82;20984;-42
2022/09/17 02:20:25;;;;;;;2.35;2.15;;;;;;;9.51;85.63;97878.41;1743340;82;21469;-42
2022/09/17 02:23:02;;;;;;;3.12;1.98;;;;;;;9.50;85.19;97872.82;1749544;82;20980;-42
2022/09/17 02:25:45;;;;;;;2.55;2.08;;;;;;;9.47;85.31;97871.72;1749719;82;21493;-42
2022/09/17 02:28:26;;;;;;;5.90;2.22;;;;;;;9.49;85.39;97864.57;1749465;82;20963;-42
2022/09/17 02:30:51;;;;;;;5.00;2.60;;;;;;;9.46;85.54;97875.31;1749472;82;20955;-42
2022/09/17 02:33:19;;;;;;;3.37;2.25;;;;;;;9.45;85.22;97871.00;1749418;82;20986;-42
2022/09/17 02:35:45;;;;;;;;;;;;;;;9.42;85.12;97873.84;1752117;82;21519;-41
2022/09/17 02:38:12;;;;;;;2.85;2.10;;;;;;;9.36;85.61;97871.68;1749613;82;20436;-42
2022/09/17 02:40:48;;;;;;;4.53;1.95;;;;;;;9.39;84.90;97864.91;1749447;82;21027;-42
2022/09/17 02:43:48;;;;;;;3.22;1.95;;;;;;;9.38;85.46;97875.02;1749734;82;20983;-42
2022/09/17 02:46:45;;;;;;;5.55;2.40;;;;;;;9.34;85.97;97864.40;1746989;82;20988;-42
2022/09/17 02:49:38;;;;;;;5.17;2.75;;;;;;;9.35;86.06;97864.30;1749621;82;20992;-42
2022/09/17 02:52:18;;;;;;;2.45;2.00;;;;;;;9.35;85.55;97868.68;1749423;82;21434;-42
2022/09/17 02:55:09;;;;;;;3.27;2.42;;;;;;;9.38;85.33;97867.16;1748755;82;20963;-42
2022/09/17 02:57:40;;;;;;;6.37;2.15;;;;;;;9.36;85.54;97867.75;1744952;82;21543;-42
2022/09/17 03:02:20;;;;;;;4.70;2.40;;;;;;;9.36;85.50;97867.75;1819032;79;22550;-43
2022/09/17 03:04:48;;;;;;;3.60;2.30;;;;;;;9.33;84.45;97861.40;1792360;80;21002;-42
2022/09/17 03:07:18;;;;;;;2.47;2.27;;;;;;;9.27;85.69;97871.04;1793002;80;21498;-42
2022/09/17 03:09:43;;;;;;;3.37;2.45;;;;;;;9.30;85.14;97873.45;1792995;80;21502;-42
2022/09/17 03:12:10;;;;;;;2.35;1.92;;;;;;;9.27;84.99;97872.35;1793014;80;21438;-42
2022/09/17 03:14:36;;;;;;;2.33;2.02;;;;;;;9.29;85.09;97875.70;1793159;80;20982;-42
2022/09/17 03:17:03;;;;;;;4.75;2.27;;;;;;;9.26;84.84;97873.28;1792935;80;21038;-40
2022/09/17 03:19:28;;;;;;;5.95;2.20;;;;;;;9.29;84.69;97876.53;1793074;80;21408;-40
2022/09/17 03:21:54;;;;;;;3.80;2.02;;;;;;;9.27;84.80;97871.04;1792987;80;21383;-41
2022/09/17 03:24:20;;;;;;;3.98;2.10;;;;;;;9.28;84.42;97867.45;1793038;80;20995;-41
2022/09/17 03:26:49;;;;;;;3.75;2.00;;;;;;;9.26;84.86;97865.42;1793077;80;21463;-41
2022/09/17 03:29:16;;;;;;;3.35;2.25;;;;;;;9.28;84.61;97862.20;1792957;80;21483;-41
2022/09/17 03:31:41;;;;;;;5.90;2.20;;;;;;;9.23;84.74;97866.49;1792993;80;21017;-42
2022/09/17 03:34:07;;;;;;;7.67;2.40;;;;;;;9.21;84.39;97862.66;1792975;80;21018;-41
2022/09/17 03:36:33;;;;;;;6.33;2.30;;;;;;;9.22;84.87;97861.73;1792964;80;21033;-41
2022/09/17 03:38:59;;;;;;;4.37;2.50;;;;;;;9.24;84.69;97857.69;1792941;80;20971;-41
2022/09/17 03:41:25;;;;;;;2.67;1.98;;;;;;;9.19;85.38;97860.63;1793098;80;21034;-41
2022/09/17 03:43:52;;;;;;;4.10;1.90;;;;;;;9.20;84.99;97856.21;1792963;80;21503;-41
2022/09/17 03:46:19;;;;;;;2.12;1.90;;;;;;;9.18;84.89;97855.00;1793199;80;21487;-41
2022/09/17 03:48:45;;;;;;;2.67;2.40;;;;;;;9.13;85.34;97849.28;1793329;80;21042;-41
2022/09/17 03:51:11;;;;;;;4.95;2.30;;;;;;;9.13;85.23;97848.42;1792962;80;21237;-41
2022/09/17 03:53:37;;;;;;;6.45;2.22;;;;;;;9.15;85.10;97846.52;1792958;80;21065;-41
2022/09/17 03:56:05;;;;;;;3.77;2.58;;;;;;;9.13;85.17;97845.80;1793082;80;21046;-41
2022/09/17 03:58:32;;;;;;;3.67;1.90;;;;;;;9.13;84.79;97846.66;1792886;80;21041;-41
2022/09/17 04:00:58;;;;;;;3.45;2.02;;;;;;;9.02;86.22;97838.70;1790468;80;21031;-41
2022/09/17 04:03:26;;;;;;;3.55;2.30;;;;;;;9.00;86.31;97840.61;1787735;80;20999;-41
2022/09/17 04:05:53;;;;;;;6.10;2.10;;;;;;;9.06;85.95;97845.43;1787758;80;21030;-41
2022/09/17 04:08:19;;;;;;;5.45;2.27;;;;;;;9.09;85.28;97846.50;1787705;80;21047;-41
2022/09/17 04:10:45;;;;;;;6.92;2.67;;;;;;;9.11;85.45;97843.77;1787769;80;21492;-41
2022/09/17 04:13:13;;;;;;;4.03;2.30;;;;;;;9.12;85.47;97846.28;1787073;80;21034;-41
2022/09/17 04:15:39;;;;;;;4.10;2.12;;;;;;;9.15;85.36;97845.21;1787241;80;20974;-42
2022/09/17 04:18:05;;;;;;;4.83;2.52;;;;;;;9.16;85.20;97851.66;1787478;80;21460;-42
2022/09/17 04:20:31;;;;;;;6.97;2.40;;;;;;;9.16;85.13;97847.73;1787047;80;20987;-42
2022/09/17 04:22:57;;;;;;;4.03;2.25;;;;;;;9.13;85.47;97849.73;1787085;80;20955;-42
2022/09/17 04:25:23;;;;;;;3.98;2.37;;;;;;;9.09;85.42;97843.87;1787033;80;20963;-42
2022/09/17 04:27:50;;;;;;;3.25;2.50;;;;;;;9.13;85.05;97849.28;1786993;80;20998;-42
2022/09/17 04:30:17;;;;;;;5.80;2.07;;;;;;;9.18;84.84;97848.94;1787343;80;20987;-42
2022/09/17 04:32:44;;;;;;;4.80;2.02;;;;;;;9.21;84.97;97856.59;1787315;80;20960;-41
2022/09/17 04:35:11;;;;;;;4.53;2.62;;;;;;;9.26;84.97;97854.92;1787190;80;20990;-41
2022/09/17 04:37:37;;;;;;;4.20;2.33;;;;;;;9.30;84.76;97856.40;1787202;80;20987;-41
2022/09/17 04:40:06;;;;;;;7.28;1.98;;;;;;;9.33;84.57;97850.91;1787143;80;20987;-48
2022/09/17 04:42:31;;;;;;;9.15;2.08;;;;;;;9.35;84.55;97860.36;1787011;80;21465;-42
2022/09/17 04:44:58;;;;;;;3.27;2.37;;;;;;;9.39;84.33;97858.34;1787063;80;20992;-42
2022/09/17 04:47:24;;;;;;;3.00;1.95;;;;;;;9.47;84.01;97850.73;1787073;80;21037;-42
2022/09/17 04:49:50;;;;;;;3.58;2.10;;;;;;;9.49;84.12;97844.06;1787056;80;21418;-42
2022/09/17 04:52:16;;;;;;;6.45;1.98;;;;;;;9.53;83.94;97844.19;1787096;80;21070;-43
2022/09/17 04:54:42;;;;;;;8.58;2.40;;;;;;;9.59;83.82;97851.14;1787044;80;21503;-42
2022/09/17 04:57:08;;;;;;;7.30;2.22;;;;;;;9.65;83.33;97850.33;1787106;80;20967;-42
2022/09/17 04:59:33;;;;;;;4.25;2.17;;;;;;;9.66;83.65;97853.30;1787009;80;20987;-42
2022/09/17 05:01:59;;;;;;;4.15;2.25;;;;;;;9.67;83.43;97852.36;1780446;80;21008;-42
2022/09/17 05:04:25;;;;;;;3.08;1.87;;;;;;;9.70;83.27;97854.28;1778777;81;21027;-42
2022/09/17 05:06:50;;;;;;;4.78;2.00;;;;;;;9.75;82.96;97849.98;1778756;81;21042;-42
2022/09/17 05:09:16;;;;;;;3.90;1.82;;;;;;;9.78;82.83;97855.84;1778791;80;20968;-43
2022/09/17 05:11:42;;;;;;;5.42;2.10;;;;;;;9.76;82.64;97852.50;1778750;80;20963;-42
2022/09/17 05:14:08;;;;;;;3.35;2.12;;;;;;;9.80;82.65;97851.34;1778875;80;20967;-42
2022/09/17 05:16:34;;;;;;;2.77;1.90;;;;;;;9.84;82.57;97854.58;1778848;81;21472;-42
2022/09/17 05:19:00;;;;;;;6.05;2.15;;;;;;;9.89;82.40;97849.78;1778896;81;21491;-42
2022/09/17 05:21:25;;;;;;;5.20;1.80;;;;;;;9.93;82.08;97847.31;1778784;80;21027;-42
2022/09/17 05:23:51;;;;;;;8.30;1.90;;;;;;;9.95;81.99;97850.66;1778715;81;21039;-43
2022/09/17 05:26:17;;;;;;;3.85;1.87;;;;;;;10.01;81.98;97844.58;1778794;80;21034;-42
2022/09/17 05:28:43;;;;;;;3.77;1.80;;;;;;;10.00;81.83;97846.34;1778768;81;20992;-42
2022/09/17 05:31:09;;;;;;;3.17;1.70;;;;;;;10.07;81.89;97848.05;1777673;80;21763;-42
2022/09/17 05:33:34;;;;;;;3.37;1.80;;;;;;;9.99;81.84;97848.15;1777963;81;21094;-43
2022/09/17 05:36:01;;;;;;;6.92;2.10;;;;;;;10.07;81.52;97842.30;1777712;81;21015;-42
2022/09/17 05:38:26;;;;;;;5.50;1.80;;;;;;;10.16;81.46;97845.53;1778696;81;21529;-43
2022/09/17 05:40:52;;;;;;;5.75;1.80;;;;;;;10.18;81.33;97850.67;1778804;81;21042;-42
2022/09/17 05:43:18;;;;;;;5.28;1.70;;;;;;;10.19;81.22;97847.11;1778756;80;20992;-42
2022/09/17 05:45:44;;;;;;;6.67;1.80;;;;;;;10.24;81.08;97846.73;1778852;81;20956;-43
2022/09/17 05:48:14;;;;;;;3.52;1.70;;;;;;;10.28;81.25;97845.57;1778848;80;21007;-42
2022/09/17 05:50:40;;;;;;;3.70;1.62;;;;;;;10.32;81.21;97838.66;1778813;81;20972;-42
2022/09/17 05:53:11;;;;;;;3.83;1.32;;;;;;;10.34;81.27;97838.06;1778643;81;21044;-42
2022/09/17 05:55:38;;;;;;;7.20;1.70;;;;;;;10.25;81.29;97843.17;1778791;81;20987;-42
2022/09/17 05:58:16;;;;;;;3.70;1.62;;;;;;;10.28;81.44;97838.52;1778932;81;21026;-43
2022/09/17 06:00:43;;;;;;;3.17;1.75;;;;;;;10.35;81.20;97829.23;1779414;80;20956;-42
2022/09/17 06:03:16;;;;;;;3.90;1.60;;;;;;;10.28;82.28;97841.63;1784714;80;20999;-43
2022/09/17 06:05:42;;;;;;;4.05;1.70;;;;;;;10.29;82.07;97837.55;1784487;80;20991;-42
2022/09/17 06:08:09;;;;;;;4.08;1.70;;;;;;;10.26;82.47;97829.92;1784625;80;21468;-42
2022/09/17 06:10:37;;;;;;;3.50;1.57;;;;;;;10.24;82.80;97829.66;1784713;80;21104;-42
2022/09/17 06:13:03;;;;;;;4.35;2.02;;;;;;;10.28;82.38;97829.32;1784538;80;21047;-42
2022/09/17 06:15:30;;;;;;;7.75;2.05;;;;;;;10.29;83.15;97843.28;1784537;80;20987;-42
2022/09/17 06:17:56;;;;;;;4.80;1.90;;;;;;;10.27;83.66;97832.89;1784656;80;20999;-42
2022/09/17 06:20:22;;;;;;;4.58;2.15;;;;;;;10.23;84.49;97839.83;1784393;80;20987;-42
2022/09/17 06:22:48;;;;;;;9.28;2.27;;;;;;;10.30;83.82;97839.72;1784554;80;20967;-42
2022/09/17 06:25:14;;;;;;;5.30;1.80;;;;;;;10.34;83.16;97838.55;1784499;80;20991;-42
2022/09/17 06:27:40;;;;;;;4.40;2.10;;;;;;;10.23;84.71;97832.77;1784499;80;21484;-42
2022/09/17 06:30:06;;;;;;;2.33;1.67;;;;;;;10.33;83.77;97842.98;1784513;80;21006;-42
2022/09/17 06:32:33;;;;;;;4.70;1.92;;;;;;;10.34;83.91;97843.80;1784614;80;21492;-42
2022/09/17 06:34:58;;;;;;;7.00;2.65;;;;;;;10.30;84.99;97842.34;1784441;80;20995;-42
2022/09/17 06:37:29;;;;;;;4.65;1.70;;;;;;;10.28;85.29;97839.00;1784478;80;20991;-42
2022/09/17 06:39:55;;;;;;;8.45;2.05;;;;;;;10.31;85.03;97838.77;1784423;80;20995;-42
2022/09/17 06:42:21;;;;;;;6.30;2.55;;;;;;;10.24;86.15;97841.03;1784494;80;21034;-42
2022/09/17 06:44:47;;;;;;;6.95;1.77;;;;;;;10.28;85.95;97845.08;1784518;80;21027;-42
2022/09/17 06:47:13;;;;;;;7.08;1.82;;;;;;;10.25;86.50;97840.05;1784456;80;20987;-42
2022/09/17 06:49:39;;;;;;;4.40;1.82;;;;;;;10.27;86.14;97844.71;1784492;80;21026;-42
2022/09/17 06:52:05;;;;;;;5.40;1.80;;;;;;;10.23;87.02;97845.91;1784550;80;21477;-42
2022/09/17 06:54:31;;;;;;;5.42;1.72;;;;;;;10.27;86.95;97852.59;1784562;80;21480;-42
2022/09/17 06:56:56;;;;;;;5.55;2.20;;;;;;;10.27;87.09;97852.59;1784545;80;21472;-42
2022/09/17 06:59:23;;;;;;;3.37;2.02;;;;;;;10.36;86.42;97855.03;1784532;80;21306;-42
2022/09/17 07:01:49;;;;;;;5.97;1.90;;;;;;;10.35;87.23;97858.59;1781870;80;21103;-42
2022/09/17 07:04:17;;;;;;;5.60;1.87;;;;;;;10.38;86.25;97853.94;1778674;81;21461;-42
2022/09/17 07:06:43;;;;;;;5.35;2.00;;;;;;;10.27;88.29;97860.48;1778559;80;21606;-42
2022/09/17 07:09:10;;;;;;;3.83;1.90;;;;;;;10.36;87.42;97862.42;1778752;81;21491;-43
2022/09/17 07:11:37;;;;;;;6.37;2.15;;;;;;;10.41;87.44;97859.45;1778871;81;21002;-42
2022/09/17 07:14:05;;;;;;;3.85;2.15;;;;;;;10.41;87.64;97859.94;1778794;81;21000;-42
2022/09/17 07:16:33;;;;;;;6.90;2.10;;;;;;;10.45;86.68;97867.94;1778614;81;21019;-41
2022/09/17 07:18:59;;;;;;;4.20;2.00;;;;;;;10.48;86.68;97871.66;1778760;81;21003;-42
2022/09/17 07:21:25;;;;;;;2.62;2.05;;;;;;;10.50;87.20;97869.73;1778643;80;21035;-42
2022/09/17 07:23:51;;;;;;;5.53;2.00;;;;;;;10.55;86.90;97876.77;1778704;81;20988;-42
2022/09/17 07:26:18;;;;;;;4.03;2.00;;;;;;;10.54;87.54;97876.42;1778693;81;20991;-43
2022/09/17 07:28:44;;;;;;;5.90;2.22;;;;;;;10.56;88.15;97875.82;1778788;81;21050;-42
2022/09/17 07:31:12;;;;;;;2.17;1.80;;;;;;;10.49;88.91;97872.82;1778803;81;21007;-42
2022/09/17 07:33:38;;;;;;;4.60;1.67;;;;;;;10.53;89.66;97874.73;1778952;81;21512;-41
2022/09/17 07:36:09;;;;;;;2.00;1.87;;;;;;;10.50;89.25;97877.62;1778977;81;20960;-42
2022/09/17 07:38:35;;;;;;;3.33;2.02;;;;;;;10.43;90.63;97869.37;1778712;81;21034;-42
2022/09/17 07:41:12;;;;;;;4.42;2.00;;;;;;;10.48;90.10;97867.22;1778673;81;21003;-42
2022/09/17 07:43:38;;;;;;;2.33;2.10;;;;;;;10.50;91.43;97860.05;1778871;81;20975;-42
2022/09/17 07:46:06;;;;;;;2.20;1.95;;;;;;;10.51;91.40;97867.45;1778698;81;21031;-42
2022/09/17 07:48:32;;;;;;;5.70;2.55;;;;;;;10.54;91.33;97871.16;1778887;81;21050;-46
2022/09/17 07:50:58;;;;;;;3.45;1.95;;;;;;;10.54;91.10;97869.85;1778890;81;21520;-42
2022/09/17 07:53:24;;;;;;;5.75;2.40;;;;;;;10.44;92.59;97874.99;1778897;80;20972;-42
2022/09/17 07:55:58;;;;;;;5.37;1.98;;;;;;;10.50;93.00;97874.99;1778844;81;20999;-42
2022/09/17 07:58:32;;;;;;;2.83;2.05;;;;;;;10.56;91.87;97870.56;1778838;81;21425;-42
2022/09/17 08:01:05;;;;;;;4.90;3.08;;;;;;;10.58;92.04;97870.45;1778878;80;20995;-41
2022/09/17 08:03:32;;;;;;;4.70;2.27;;;;;;;10.60;91.97;97876.42;1778576;80;20971;-41
2022/09/17 08:06:08;;;;;;;4.55;2.40;;;;;;;10.58;92.92;97877.02;1779147;81;21452;-42
2022/09/17 08:08:36;;;;;;;4.93;2.17;;;;;;;10.58;93.11;97888.36;1777381;80;20991;-41
2022/09/17 08:11:14;;;;;;;3.62;2.25;;;;;;;10.58;93.11;97888.36;1778751;81;22109;-42
2022/09/17 08:13:40;;;;;;;4.62;2.65;;;;;;;10.65;91.96;97900.08;1778820;81;20995;-41
2022/09/17 08:16:14;;;;;;;3.17;2.05;;;;;;;10.72;91.77;97900.44;1778813;80;20999;-42
2022/09/17 08:18:42;;;;;;;3.92;2.20;;;;;;;10.80;92.94;97903.78;1778831;80;21019;-42
2022/09/17 08:21:15;;;;;;;2.77;2.00;;;;;;;10.87;92.80;97899.71;1778803;81;21039;-41
2022/09/17 08:23:43;;;;;;;3.42;2.30;;;;;;;10.94;91.95;97904.84;1778850;81;21035;-41
2022/09/17 08:26:13;;;;;;;3.83;2.27;;;;;;;10.99;91.85;97907.09;1778849;80;21572;-41
2022/09/17 08:28:39;;;;;;;3.15;1.80;;;;;;;10.98;91.70;97898.37;1778876;81;21004;-41
2022/09/17 08:31:07;;;;;;;2.95;2.10;;;;;;;11.04;91.76;97912.37;1756955;81;20996;-42
2022/09/17 08:33:36;;;;;;;4.95;2.10;;;;;;;11.04;91.86;97914.16;1778752;81;21580;-41
2022/09/17 08:36:03;;;;;;;2.67;1.90;;;;;;;11.09;91.35;97910.20;1778886;81;20995;-42
2022/09/17 08:38:37;;;;;;;3.90;2.12;;;;;;;11.07;91.50;97916.06;1778772;81;20980;-42
2022/09/17 08:41:20;;;;;;;3.12;1.80;;;;;;;11.17;92.35;97899.55;1778821;81;21000;-42
2022/09/17 08:44:09;;;;;;;4.40;1.70;;;;;;;11.23;90.89;97901.70;1779120;81;20976;-41
2022/09/17 08:47:04;;;;;;;3.77;2.30;;;;;;;11.29;91.57;97911.72;1769178;80;21011;-42
2022/09/17 08:49:36;;;;;;;4.58;2.05;;;;;;;11.32;91.42;97907.05;1778440;80;21039;-42
2022/09/17 08:52:27;;;;;;;2.27;1.90;;;;;;;11.33;92.25;97902.16;1778833;81;21000;-42
2022/09/17 08:55:10;;;;;;;5.58;1.67;;;;;;;11.35;91.87;97909.94;1778866;81;20976;-42
2022/09/17 08:58:07;;;;;;;3.65;1.80;;;;;;;11.38;90.79;97914.92;1778003;80;21000;-42
2022/09/17 09:00:44;;;;;;;5.10;1.90;;;;;;;11.21;91.39;97906.25;1778711;81;21027;-42
2022/09/17 09:03:44;;;;;;;2.60;2.00;;;;;;;11.27;91.28;97903.95;1775259;80;21028;-41
2022/09/17 09:06:14;;;;;;;6.17;1.95;;;;;;;11.31;91.61;97899.27;1739729;82;20976;-41
2022/09/17 09:08:51;;;;;;;5.35;1.80;;;;;;;11.33;90.84;97902.61;1718899;82;20984;-42
2022/09/17 09:11:25;;;;;;;;;;;;;;;11.36;91.78;97906.33;1741989;82;21047;-41
2022/09/17 09:14:07;;;;;;;2.85;2.33;;;;;;;11.38;92.44;97904.89;1739642;82;20126;-41
2022/09/17 09:16:38;;;;;;;2.20;1.60;;;;;;;11.47;92.11;97897.56;1739517;82;21032;-41
2022/09/17 09:19:26;;;;;;;4.05;2.10;;;;;;;11.60;91.00;97894.77;1739610;82;21008;-42
2022/09/17 09:22:05;;;;;;;3.22;1.70;;;;;;;11.67;91.25;97903.83;1739676;82;21528;-42
2022/09/17 09:24:37;;;;;;;4.20;1.40;;;;;;;11.71;90.66;97911.83;1739809;82;20996;-42
2022/09/17 09:27:34;;;;;;;3.70;1.45;;;;;;;11.75;90.49;97913.27;1739250;81;21007;-42
2022/09/17 09:30:12;;;;;;;1.85;1.45;;;;;;;11.75;89.47;97904.05;1739396;82;21046;-42
2022/09/17 09:32:53;;;;;;;1.70;1.40;;;;;;;11.74;89.82;97901.05;1739620;82;21000;-42
2022/09/17 09:35:26;;;;;;;3.72;1.70;;;;;;;11.69;89.45;97909.31;1739695;81;21508;-42
2022/09/17 09:38:26;;;;;;;1.67;1.55;;;;;;;11.80;89.71;97911.07;1739596;82;20995;-42
2022/09/17 09:41:09;;;;;;;3.95;1.60;;;;;;;11.83;88.78;97912.14;1739266;82;20992;-42
2022/09/17 09:43:41;;;;;;;2.65;1.50;;;;;;;11.82;88.76;97909.62;1739588;82;20980;-40
2022/09/17 09:46:42;;;;;;;1.75;1.65;;;;;;;11.79;89.67;97913.37;1739592;82;21148;-41
2022/09/17 09:49:35;;;;;;;1.47;1.37;;;;;;;11.77;89.79;97912.66;1739589;82;20996;-41
2022/09/17 09:52:45;;;;;;;1.75;1.57;;;;;;;11.69;88.69;97923.80;1739600;82;21003;-41
2022/09/17 09:55:56;;;;;;;2.30;1.50;;;;;;;11.66;88.70;97928.48;1739661;82;21426;-40
2022/09/17 09:58:30;;;;;;;1.90;1.70;;;;;;;11.60;89.03;97930.31;1739583;82;21039;-43
2022/09/17 10:00:56;;;;;;;1.57;1.47;;;;;;;11.57;89.32;97926.59;1739629;82;21027;-40
2022/09/17 10:03:32;;;;;;;2.27;1.52;;;;;;;11.67;88.90;97938.06;1749885;81;21071;-41
2022/09/17 10:06:09;;;;;;;1.87;1.55;;;;;;;11.78;90.83;97930.61;1753602;81;21492;-41
2022/09/17 10:08:40;;;;;;;1.70;1.60;;;;;;;11.88;88.75;97931.53;1753804;82;20994;-41
2022/09/17 10:11:14;;;;;;;5.17;1.80;;;;;;;12.01;88.35;97944.56;1749321;82;21034;-41
2022/09/17 10:13:41;;;;;;;3.37;1.70;;;;;;;12.03;87.50;97951.36;1750572;82;21022;-41
2022/09/17 10:16:26;;;;;;;1.67;1.52;;;;;;;12.15;87.70;97946.89;1753679;81;21018;-41
2022/09/17 10:19:13;;;;;;;1.60;1.45;;;;;;;12.22;86.90;97954.61;1753197;82;21026;-41
2022/09/17 10:21:41;;;;;;;4.47;1.67;;;;;;;12.36;85.55;97969.28;1760606;81;21543;-41
2022/09/17 10:24:30;;;;;;;2.77;1.92;;;;;;;12.38;85.33;97966.03;1776760;81;20983;-42
2022/09/17 10:27:02;;;;;;;1.67;1.57;;;;;;;12.52;85.60;97966.69;1776866;81;20999;-41
2022/09/17 10:29:29;;;;;;;1.70;1.60;;;;;;;12.72;84.72;97952.64;1776837;81;21034;-41
2022/09/17 10:31:56;;;;;;;2.15;1.95;;;;;;;13.08;84.28;97954.86;1776803;80;20986;-42
2022/09/17 10:34:29;;;;;;;1.50;1.40;;;;;;;13.48;84.75;97959.31;1776848;80;20999;-41
2022/09/17 10:36:56;;;;;;;2.20;1.60;;;;;;;13.71;82.20;97959.92;1776889;81;21035;-41
2022/09/17 10:39:43;;;;;;;1.30;1.20;;;;;;;13.97;81.42;97978.70;1776758;81;20964;-41
2022/09/17 10:42:16;;;;;;;1.80;1.32;;;;;;;14.12;80.17;97984.44;1775656;81;21032;-41
2022/09/17 10:44:54;;;;;;;1.62;1.52;;;;;;;14.06;76.44;97977.04;1776668;80;21031;-42
2022/09/17 10:47:30;;;;;;;1.50;1.37;;;;;;;14.18;78.71;97963.54;1776194;80;21032;-42
2022/09/17 10:50:04;;;;;;;3.95;1.57;;;;;;;14.39;79.38;97961.24;1776911;81;21519;-42
2022/09/17 10:52:41;;;;;;;1.47;1.37;;;;;;;14.54;78.55;97949.23;1776838;81;21465;-42
2022/09/17 10:55:33;;;;;;;1.47;1.35;;;;;;;14.99;76.70;97957.00;1777013;80;20963;-42
2022/09/17 10:58:39;;;;;;;1.87;1.50;;;;;;;15.17;74.15;97966.30;1777034;81;20999;-42
2022/09/17 11:01:28;;;;;;;2.87;1.40;;;;;;;15.14;75.17;97958.18;1777053;81;21023;-42
2022/09/17 11:04:05;;;;;;;3.50;1.57;;;;;;;15.00;72.77;97956.50;1771686;80;21563;-42
2022/09/17 11:06:57;;;;;;;;;;;;;;;14.75;71.22;97955.69;1774258;81;21007;-41
2022/09/17 11:09:38;;;;;;;1.50;1.40;;;;;;;14.59;72.45;97954.96;1765539;81;20109;-41
2022/09/17 11:12:39;;;;;;;1.80;1.60;;;;;;;14.79;73.35;97946.97;1771492;81;21043;-42
2022/09/17 11:15:25;;;;;;;1.60;1.50;;;;;;;15.05;72.76;97963.52;1771602;80;20959;-41
2022/09/17 11:18:19;;;;;;;1.90;1.73;;;;;;;14.81;70.93;97975.45;1771856;81;20987;-41
2022/09/17 11:21:02;;;;;;;3.37;2.10;;;;;;;14.63;71.56;97970.56;1771612;81;21003;-42
2022/09/17 11:23:59;;;;;;;1.67;1.52;;;;;;;14.40;71.72;97974.80;1771813;81;20972;-41
2022/09/17 11:26:47;;;;;;;1.98;1.80;;;;;;;14.08;73.10;97968.48;1770299;81;21023;-42
2022/09/17 11:29:27;;;;;;;3.30;1.80;;;;;;;13.85;73.83;97963.97;1760393;81;20981;-41
2022/09/17 11:32:05;;;;;;;4.20;1.80;;;;;;;13.85;74.06;97970.58;1771208;81;20988;-42
2022/09/17 11:35:00;;;;;;;2.50;1.70;;;;;;;13.72;75.21;97967.71;1771787;81;21030;-41
2022/09/17 11:37:39;;;;;;;4.87;1.62;;;;;;;13.69;75.22;97972.43;1730672;81;21441;-41
2022/09/17 11:40:13;;;;;;;4.97;1.72;;;;;;;13.51;75.43;97979.69;1771819;81;21489;-42
2022/09/17 11:43:00;;;;;;;2.77;1.70;;;;;;;13.43;75.45;97986.14;1770891;81;21012;-41
2022/09/17 11:45:37;;;;;;;2.77;2.15;;;;;;;13.30;76.63;97988.13;1771848;81;21504;-41
2022/09/17 11:48:19;;;;;;;2.33;1.73;;;;;;;13.12;77.86;97987.95;1772289;81;20976;-41
2022/09/17 11:50:53;;;;;;;2.05;1.85;;;;;;;13.09;77.88;97978.48;1771786;81;21052;-41
2022/09/17 11:53:45;;;;;;;2.72;1.90;;;;;;;13.01;78.47;97979.16;1771915;81;21512;-41
2022/09/17 11:56:31;;;;;;;4.42;1.98;;;;;;;13.03;78.49;97975.89;1770896;81;20981;-41
2022/09/17 11:59:05;;;;;;;6.45;2.12;;;;;;;12.97;78.84;97973.80;1771509;81;21468;-42
2022/09/17 12:01:45;;;;;;;2.47;2.27;;;;;;;13.04;78.92;97979.36;1742756;81;20949;-41
2022/09/17 12:04:39;;;;;;;2.33;2.08;;;;;;;13.00;79.78;97980.59;1771724;81;21019;-41
2022/09/17 12:07:36;;;;;;;2.85;2.12;;;;;;;12.98;79.60;97976.77;1771821;81;21015;-41
2022/09/17 12:10:34;;;;;;;2.40;2.10;;;;;;;12.91;79.55;97976.94;1771859;80;21382;-41